Time;durP1;ratioP1;P1;durP2;ratioP2;P2;SDS_P1;SDS_P2;PMS_P1;PMS_P2;Temp;Humidity;BMP_temperature;BMP_pressure;BME280_temperature;BME280_humidity;BME280_pressure;Samples;Min_cycle;Max_cycle;Signal;HPM_P1;HPM_P2
2022/01/17 00:00:08;;;;;;;27.58;13.52;;;;;;;;;;8367435;28;20048;-72
2022/01/17 00:04:31;;;;;;;24.90;11.55;;;;;;;;;;8367177;28;20102;-72
2022/01/17 00:08:35;;;;;;;24.17;11.82;;;;;;;;;;8367544;28;20056;-71
2022/01/17 00:12:44;;;;;;;22.17;11.65;;;;;;;;;;8565657;22;20542;-75
2022/01/17 00:16:52;;;;;;;21.55;11.60;;;;;;;;;;8366930;28;20077;-78
2022/01/17 00:20:56;;;;;;;26.77;12.10;;;;;;;;;;8367396;28;20542;-78
2022/01/17 00:24:59;;;;;;;22.17;10.85;;;;;;;;;;8367107;28;20128;-75
2022/01/17 00:29:01;;;;;;;22.85;12.30;;;;;;;;;;8367458;28;20106;-76
2022/01/17 00:33:05;;;;;;;25.05;11.55;;;;;;;;;;8366526;28;20044;-76
2022/01/17 00:37:08;;;;;;;22.73;10.55;;;;;;;;;;8365965;28;20045;-79
2022/01/17 00:41:10;;;;;;;22.00;11.60;;;;;;;;;;8366811;28;20392;-72
2022/01/17 00:45:14;;;;;;;23.20;11.23;;;;;;;;;;8366507;28;20092;-75
2022/01/17 00:49:19;;;;;;;24.48;12.55;;;;;;;;;;8366391;28;20048;-75
2022/01/17 00:53:21;;;;;;;22.98;11.32;;;;;;;;;;8366263;28;20102;-82
2022/01/17 00:57:24;;;;;;;25.20;10.77;;;;;;;;;;8366158;28;20049;-75
2022/01/17 01:01:27;;;;;;;24.80;12.27;;;;;;;;;;8366148;28;20445;-74
2022/01/17 01:05:32;;;;;;;26.23;13.40;;;;;;;;;;8365769;28;20468;-75
2022/01/17 01:09:43;;;;;;;21.85;11.48;;;;;;;;;;8366297;28;20041;-74
2022/01/17 01:13:45;;;;;;;23.42;11.38;;;;;;;;;;8365295;28;20060;-74
2022/01/17 01:17:51;;;;;;;24.88;12.60;;;;;;;;;;8364890;28;20124;-74
2022/01/17 01:30:46;;;;;;;26.08;12.32;;;;;;;;;;8363260;28;20041;-75
2022/01/17 01:34:52;;;;;;;27.55;14.13;;;;;;;;;;8363487;28;20064;-74
2022/01/17 01:38:56;;;;;;;25.17;11.25;;;;;;;;;;8360052;28;20041;-74
2022/01/17 01:42:59;;;;;;;29.13;14.45;;;;;;;;;;8362621;28;20103;-76
2022/01/17 01:47:01;;;;;;;30.55;15.38;;;;;;;;;;8362008;28;20041;-75
2022/01/17 01:51:04;;;;;;;25.33;12.65;;;;;;;;;;8360292;28;20067;-74
2022/01/17 01:55:11;;;;;;;22.35;12.38;;;;;;;;;;8358073;28;20071;-74
2022/01/17 01:59:16;;;;;;;26.23;13.95;;;;;;;;;;8363619;28;20045;-74
2022/01/17 02:03:19;;;;;;;29.00;14.18;;;;;;;;;;8362376;28;20045;-75
2022/01/17 02:07:22;;;;;;;25.98;12.70;;;;;;;;;;8362215;28;20102;-74
2022/01/17 02:11:26;;;;;;;25.90;12.60;;;;;;;;;;8362555;28;20052;-75
2022/01/17 02:15:28;;;;;;;27.45;14.55;;;;;;;;;;8362302;28;20045;-74
2022/01/17 02:19:31;;;;;;;;;;;;;;;;;;8361330;28;20495;-79
2022/01/17 02:23:35;;;;;;;25.23;13.27;;;;;;;;;;8362380;28;19921;-81
2022/01/17 02:27:38;;;;;;;26.02;14.23;;;;;;;;;;8362879;28;20073;-80
2022/01/17 02:31:41;;;;;;;27.73;13.57;;;;;;;;;;8364375;28;20044;-75
2022/01/17 02:35:47;;;;;;;31.20;14.50;;;;;;;;;;8367039;28;20099;-74
2022/01/17 02:39:51;;;;;;;32.15;15.05;;;;;;;;;;8369999;28;20049;-75
2022/01/17 02:43:54;;;;;;;31.42;15.13;;;;;;;;;;8370366;28;20071;-74
2022/01/17 02:47:57;;;;;;;31.85;15.02;;;;;;;;;;8370113;28;20708;-81
2022/01/17 02:52:00;;;;;;;33.80;14.65;;;;;;;;;;8369621;28;20110;-74
2022/01/17 02:56:07;;;;;;;36.22;16.67;;;;;;;;;;8369408;28;20132;-78
2022/01/17 03:00:11;;;;;;;35.70;16.58;;;;;;;;;;8369863;28;20507;-76
2022/01/17 03:04:14;;;;;;;36.55;16.73;;;;;;;;;;8369170;28;20132;-74
2022/01/17 03:08:17;;;;;;;34.83;16.67;;;;;;;;;;8369001;28;20045;-75
2022/01/17 03:12:21;;;;;;;35.20;17.00;;;;;;;;;;8368706;28;20052;-76
2022/01/17 03:16:30;;;;;;;33.42;15.57;;;;;;;;;;8368849;28;20045;-76
2022/01/17 03:20:34;;;;;;;41.03;18.98;;;;;;;;;;8369204;28;20048;-75
2022/01/17 03:24:36;;;;;;;45.70;21.55;;;;;;;;;;8368497;28;20053;-78
2022/01/17 03:28:41;;;;;;;39.78;17.90;;;;;;;;;;8368771;28;20048;-79
2022/01/17 03:32:43;;;;;;;36.97;17.23;;;;;;;;;;8368227;28;20052;-77
2022/01/17 03:36:46;;;;;;;34.28;17.33;;;;;;;;;;8368138;28;20049;-75
2022/01/17 03:40:51;;;;;;;37.20;16.38;;;;;;;;;;8368565;28;20049;-74
2022/01/17 03:44:55;;;;;;;40.03;18.73;;;;;;;;;;8368092;28;20052;-75
2022/01/17 03:48:57;;;;;;;41.97;18.05;;;;;;;;;;8367637;28;20059;-73
2022/01/17 03:53:00;;;;;;;34.92;15.90;;;;;;;;;;8367945;28;20053;-76
2022/01/17 03:57:03;;;;;;;35.63;16.92;;;;;;;;;;8367564;28;20056;-73
2022/01/17 04:01:09;;;;;;;32.22;16.55;;;;;;;;;;8367871;28;20048;-73
2022/01/17 04:05:11;;;;;;;37.63;17.77;;;;;;;;;;8367776;28;20045;-74
2022/01/17 04:09:14;;;;;;;37.13;18.85;;;;;;;;;;8367528;28;20071;-74
2022/01/17 04:13:16;;;;;;;28.10;14.43;;;;;;;;;;8367241;28;20156;-74
2022/01/17 04:17:21;;;;;;;33.38;19.45;;;;;;;;;;8366896;28;20045;-73
2022/01/17 04:21:27;;;;;;;29.27;16.45;;;;;;;;;;8366849;28;20075;-73
2022/01/17 04:25:32;;;;;;;26.27;13.30;;;;;;;;;;8366648;28;20052;-73
2022/01/17 04:29:35;;;;;;;28.80;14.40;;;;;;;;;;8366427;28;20110;-74
2022/01/17 04:33:39;;;;;;;31.75;16.38;;;;;;;;;;8366347;28;20049;-76
2022/01/17 04:37:42;;;;;;;36.90;19.33;;;;;;;;;;8366755;28;20049;-77
2022/01/17 04:41:45;;;;;;;30.48;15.00;;;;;;;;;;8366666;28;20045;-75
2022/01/17 04:45:49;;;;;;;39.92;18.67;;;;;;;;;;8366518;28;20488;-75
2022/01/17 04:49:54;;;;;;;28.42;15.68;;;;;;;;;;8365717;28;20132;-75
2022/01/17 04:54:32;;;;;;;29.88;17.05;;;;;;;;;;8366260;28;20041;-73
2022/01/17 04:58:25;;;;;;;30.13;15.43;;;;;;;;;;8364815;28;20514;-73
2022/01/17 05:02:28;;;;;;;28.55;15.73;;;;;;;;;;8365519;28;20053;-78
2022/01/17 05:06:32;;;;;;;28.50;15.48;;;;;;;;;;8365255;28;20198;-77
2022/01/17 05:10:35;;;;;;;27.13;14.23;;;;;;;;;;8365625;28;20488;-73
2022/01/17 05:14:40;;;;;;;27.50;15.57;;;;;;;;;;8365275;28;20076;-73
2022/01/17 05:23:04;;;;;;;33.42;15.82;;;;;;;;;;8365280;28;20049;-73
2022/01/17 05:27:07;;;;;;;32.95;18.10;;;;;;;;;;8364613;28;20045;-73
2022/01/17 05:31:09;;;;;;;27.95;14.38;;;;;;;;;;8365051;28;20400;-73
2022/01/17 05:35:13;;;;;;;29.52;15.93;;;;;;;;;;8364922;28;20400;-73
2022/01/17 05:39:17;;;;;;;30.95;16.05;;;;;;;;;;8364881;28;20049;-73
2022/01/17 05:43:19;;;;;;;32.78;17.00;;;;;;;;;;8364355;28;20051;-73
2022/01/17 05:47:22;;;;;;;29.23;15.73;;;;;;;;;;8364108;28;20053;-73
2022/01/17 05:51:25;;;;;;;26.83;13.95;;;;;;;;;;8364139;28;20045;-73
2022/01/17 05:55:29;;;;;;;32.97;16.52;;;;;;;;;;8363987;28;20044;-74
2022/01/17 05:59:31;;;;;;;32.25;17.08;;;;;;;;;;8364347;28;20069;-73
2022/01/17 06:03:34;;;;;;;29.10;14.38;;;;;;;;;;8364462;28;20041;-73
2022/01/17 06:07:36;;;;;;;28.95;15.48;;;;;;;;;;8364140;28;20480;-78
2022/01/17 06:11:40;;;;;;;32.45;16.10;;;;;;;;;;8363931;28;20053;-73
2022/01/17 06:15:43;;;;;;;28.25;13.80;;;;;;;;;;8361549;28;20037;-80
2022/01/17 06:19:45;;;;;;;30.67;15.68;;;;;;;;;;8360625;28;20048;-74
2022/01/17 06:23:48;;;;;;;32.60;16.85;;;;;;;;;;8361751;28;20049;-74
2022/01/17 06:27:52;;;;;;;27.70;13.88;;;;;;;;;;8363626;28;20045;-74
2022/01/17 06:31:54;;;;;;;34.60;15.75;;;;;;;;;;8363398;28;20045;-74
2022/01/17 06:35:57;;;;;;;27.52;14.60;;;;;;;;;;8330560;28;20049;-74
2022/01/17 06:40:00;;;;;;;38.17;21.38;;;;;;;;;;8339194;28;20043;-73
2022/01/17 06:44:06;;;;;;;28.13;15.70;;;;;;;;;;8359898;28;20071;-73
2022/01/17 06:48:08;;;;;;;28.13;14.20;;;;;;;;;;8359411;28;20045;-76
2022/01/17 06:52:11;;;;;;;28.25;13.68;;;;;;;;;;8359886;28;20048;-73
2022/01/17 06:56:14;;;;;;;28.23;14.43;;;;;;;;;;8358142;28;20469;-73
2022/01/17 07:00:18;;;;;;;31.10;15.70;;;;;;;;;;8360450;28;20419;-74
2022/01/17 07:04:21;;;;;;;26.35;13.35;;;;;;;;;;8358112;28;20048;-73
2022/01/17 07:08:24;;;;;;;26.95;13.40;;;;;;;;;;8360396;28;20057;-76
2022/01/17 07:12:28;;;;;;;28.23;13.18;;;;;;;;;;8359167;28;20057;-73
2022/01/17 07:16:33;;;;;;;28.60;14.15;;;;;;;;;;8361061;28;20073;-79
2022/01/17 07:20:35;;;;;;;28.45;12.65;;;;;;;;;;8358897;28;20048;-74
2022/01/17 07:24:39;;;;;;;29.98;13.27;;;;;;;;;;8366072;28;20105;-73
2022/01/17 07:28:41;;;;;;;25.02;11.98;;;;;;;;;;8355523;28;20118;-79
2022/01/17 07:32:45;;;;;;;23.80;12.52;;;;;;;;;;8368244;28;20067;-73
2022/01/17 07:36:48;;;;;;;24.02;12.93;;;;;;;;;;8368226;28;20128;-72
2022/01/17 07:40:51;;;;;;;26.27;12.45;;;;;;;;;;8367957;28;20047;-73
2022/01/17 07:44:55;;;;;;;21.45;10.27;;;;;;;;;;8368616;28;20132;-74
2022/01/17 07:49:09;;;;;;;20.42;10.27;;;;;;;;;;8367546;28;20565;-73
2022/01/17 07:53:13;;;;;;;19.38;10.23;;;;;;;;;;8368124;28;20083;-74
2022/01/17 07:57:15;;;;;;;16.38;9.00;;;;;;;;;;8366421;28;20049;-73
2022/01/17 08:01:19;;;;;;;20.52;11.65;;;;;;;;;;8364455;28;20045;-74
2022/01/17 08:05:24;;;;;;;21.23;10.23;;;;;;;;;;8366288;28;20040;-74
2022/01/17 08:09:30;;;;;;;16.23;8.95;;;;;;;;;;8367134;28;20119;-74
2022/01/17 08:13:33;;;;;;;15.40;8.93;;;;;;;;;;8367187;28;20056;-73
2022/01/17 08:17:37;;;;;;;15.20;8.02;;;;;;;;;;8367111;28;20053;-75
2022/01/17 08:21:41;;;;;;;18.65;8.73;;;;;;;;;;8366709;28;20484;-73
2022/01/17 08:25:43;;;;;;;13.90;7.78;;;;;;;;;;8366863;28;20048;-80
2022/01/17 08:29:47;;;;;;;15.10;7.68;;;;;;;;;;8366289;28;20407;-74
2022/01/17 08:33:49;;;;;;;15.27;8.32;;;;;;;;;;8365284;28;20045;-73
2022/01/17 08:37:53;;;;;;;14.93;8.23;;;;;;;;;;8362241;28;20381;-75
2022/01/17 08:41:56;;;;;;;15.05;7.07;;;;;;;;;;8364039;28;20500;-76
2022/01/17 08:46:00;;;;;;;12.55;6.15;;;;;;;;;;8364036;28;20045;-74
2022/01/17 08:50:04;;;;;;;19.77;9.43;;;;;;;;;;8366267;28;20107;-75
2022/01/17 08:54:09;;;;;;;15.70;7.30;;;;;;;;;;8365376;28;20049;-73
2022/01/17 08:58:13;;;;;;;12.88;7.05;;;;;;;;;;8364533;28;20072;-73
2022/01/17 09:02:16;;;;;;;16.40;8.98;;;;;;;;;;8365593;28;20133;-73
2022/01/17 09:06:19;;;;;;;16.80;7.35;;;;;;;;;;8364468;28;20061;-74
2022/01/17 09:10:23;;;;;;;16.98;7.65;;;;;;;;;;8348874;28;20077;-73
2022/01/17 09:14:30;;;;;;;13.95;7.68;;;;;;;;;;8331874;28;20480;-74
2022/01/17 09:18:35;;;;;;;12.00;6.82;;;;;;;;;;8331792;28;20053;-76
2022/01/17 09:22:44;;;;;;;11.07;5.70;;;;;;;;;;8332482;28;20057;-74
2022/01/17 09:26:49;;;;;;;11.10;5.85;;;;;;;;;;8332184;28;20065;-73
2022/01/17 09:30:59;;;;;;;10.68;5.90;;;;;;;;;;8331379;28;20061;-73
2022/01/17 12:29:46;;;;;;;22.00;8.95;;;;;;;;;;8447835;27;20433;-75
2022/01/17 12:34:18;;;;;;;17.92;7.88;;;;;;;;;;8459051;28;20403;-74
2022/01/17 12:38:44;;;;;;;18.73;6.00;;;;;;;;;;8455424;28;20092;-75
2022/01/17 12:43:14;;;;;;;14.05;5.70;;;;;;;;;;8436223;28;20051;-75
2022/01/17 12:47:40;;;;;;;21.40;6.55;;;;;;;;;;8434032;28;20549;-74
2022/01/17 12:51:52;;;;;;;19.08;7.78;;;;;;;;;;8423796;28;20056;-73
2022/01/17 12:56:02;;;;;;;24.50;10.55;;;;;;;;;;8441396;28;20407;-73
2022/01/17 13:00:20;;;;;;;24.17;10.60;;;;;;;;;;8456520;28;20051;-73
2022/01/17 13:04:36;;;;;;;18.17;7.63;;;;;;;;;;8444296;28;20119;-73
2022/01/17 13:08:59;;;;;;;13.48;5.90;;;;;;;;;;8449485;28;20040;-75
2022/01/17 13:13:15;;;;;;;12.40;6.07;;;;;;;;;;8442317;28;20052;-74
2022/01/17 13:17:32;;;;;;;24.25;9.07;;;;;;;;;;8457068;28;20109;-75
2022/01/17 13:21:51;;;;;;;9.60;5.20;;;;;;;;;;8449869;28;20437;-74
2022/01/17 13:25:57;;;;;;;13.73;5.38;;;;;;;;;;8434964;28;20055;-73
2022/01/17 13:30:12;;;;;;;12.65;4.30;;;;;;;;;;8436214;28;20461;-75
2022/01/17 13:34:19;;;;;;;13.82;5.10;;;;;;;;;;8433278;28;20048;-75
2022/01/17 13:38:36;;;;;;;11.18;4.93;;;;;;;;;;8394798;28;20048;-73
2022/01/17 13:43:08;;;;;;;9.35;4.35;;;;;;;;;;8433801;28;20075;-73
2022/01/17 13:47:32;;;;;;;12.02;4.63;;;;;;;;;;8431836;28;20070;-73
2022/01/17 13:51:51;;;;;;;17.88;6.40;;;;;;;;;;8432036;28;20062;-73
2022/01/17 13:56:14;;;;;;;15.75;5.28;;;;;;;;;;8421709;28;20083;-74
2022/01/17 14:00:38;;;;;;;12.65;4.20;;;;;;;;;;8415647;28;20044;-78
2022/01/17 14:04:45;;;;;;;9.32;4.10;;;;;;;;;;8399778;28;20597;-75
2022/01/17 14:08:53;;;;;;;11.65;5.45;;;;;;;;;;8400084;28;20479;-74
2022/01/17 14:13:12;;;;;;;12.18;4.30;;;;;;;;;;8399527;28;20178;-75
2022/01/17 14:17:34;;;;;;;12.18;4.35;;;;;;;;;;8399614;28;20068;-77
2022/01/17 14:21:54;;;;;;;8.13;4.13;;;;;;;;;;8398745;28;20123;-74
2022/01/17 14:26:23;;;;;;;10.68;3.65;;;;;;;;;;8409283;28;20139;-75
2022/01/17 14:30:54;;;;;;;7.82;3.42;;;;;;;;;;8398586;28;20044;-73
2022/01/17 14:35:16;;;;;;;11.10;3.72;;;;;;;;;;8401310;28;20032;-73
2022/01/17 14:39:42;;;;;;;6.55;4.13;;;;;;;;;;8406730;28;20076;-73
2022/01/17 14:44:05;;;;;;;15.90;5.47;;;;;;;;;;8398002;28;20105;-73
2022/01/17 14:48:26;;;;;;;14.50;5.72;;;;;;;;;;8398662;28;20507;-74
2022/01/17 14:52:49;;;;;;;12.88;4.68;;;;;;;;;;8398259;28;20504;-73
2022/01/17 15:01:29;;;;;;;11.00;4.13;;;;;;;;;;8399802;28;20051;-74
2022/01/17 15:05:45;;;;;;;14.20;4.38;;;;;;;;;;8406807;28;20098;-74
2022/01/17 15:10:12;;;;;;;13.50;5.22;;;;;;;;;;8397449;28;20056;-75
2022/01/17 15:14:30;;;;;;;6.90;4.10;;;;;;;;;;8397327;28;20135;-73
2022/01/17 15:18:53;;;;;;;7.22;3.65;;;;;;;;;;8397275;28;20068;-72
2022/01/17 15:23:02;;;;;;;9.68;4.20;;;;;;;;;;8397526;28;20508;-73
2022/01/17 15:27:21;;;;;;;13.60;4.80;;;;;;;;;;8395731;28;20060;-73
2022/01/17 15:31:41;;;;;;;10.00;4.80;;;;;;;;;;8397287;28;20412;-73
2022/01/17 15:36:03;;;;;;;13.98;6.65;;;;;;;;;;8397014;28;20044;-73
2022/01/17 15:40:28;;;;;;;27.00;9.07;;;;;;;;;;8396711;28;20412;-72
2022/01/17 15:44:49;;;;;;;19.02;7.57;;;;;;;;;;8397313;28;20060;-73
2022/01/17 15:48:55;;;;;;;45.08;13.98;;;;;;;;;;8400798;28;20165;-73
2022/01/17 15:53:00;;;;;;;19.98;7.47;;;;;;;;;;8398548;28;20048;-71
2022/01/17 15:57:05;;;;;;;11.40;4.97;;;;;;;;;;8396664;28;20041;-74
2022/01/17 16:01:09;;;;;;;71.13;19.65;;;;;;;;;;8399162;28;20127;-77
2022/01/17 16:05:16;;;;;;;18.50;7.72;;;;;;;;;;8395895;28;20052;-75
2022/01/17 16:09:19;;;;;;;38.28;11.48;;;;;;;;;;8407235;28;20048;-76
2022/01/17 16:13:24;;;;;;;22.13;7.55;;;;;;;;;;8383559;28;20063;-73
2022/01/17 16:17:39;;;;;;;45.08;15.52;;;;;;;;;;8422608;28;20423;-74
2022/01/17 16:21:45;;;;;;;17.13;5.40;;;;;;;;;;8413045;28;20072;-73
2022/01/17 16:25:49;;;;;;;14.73;5.20;;;;;;;;;;8421329;28;20484;-76
2022/01/17 16:29:55;;;;;;;23.70;7.20;;;;;;;;;;8403358;28;20055;-75
2022/01/17 16:33:58;;;;;;;16.65;5.70;;;;;;;;;;8412130;28;20040;-73
2022/01/17 16:38:02;;;;;;;31.17;11.60;;;;;;;;;;8409844;28;20041;-74
2022/01/17 16:42:07;;;;;;;13.57;5.55;;;;;;;;;;8404006;28;20067;-75
2022/01/17 16:46:14;;;;;;;14.30;4.65;;;;;;;;;;8425810;28;20498;-74
2022/01/17 16:50:25;;;;;;;36.35;9.27;;;;;;;;;;8404970;28;20052;-73
2022/01/17 16:54:31;;;;;;;157.65;37.00;;;;;;;;;;8404632;28;20083;-74
2022/01/17 16:58:47;;;;;;;27.60;8.75;;;;;;;;;;8409635;28;20529;-75
2022/01/17 17:03:19;;;;;;;19.33;6.18;;;;;;;;;;8429122;28;20047;-72
2022/01/17 17:07:56;;;;;;;33.13;8.75;;;;;;;;;;8435038;28;20127;-74
2022/01/17 17:12:12;;;;;;;25.63;9.02;;;;;;;;;;8433528;28;20059;-73
2022/01/17 17:21:19;;;;;;;40.67;12.95;;;;;;;;;;8418356;28;20043;-74
2022/01/17 17:25:50;;;;;;;50.42;12.98;;;;;;;;;;8422303;28;20045;-75
2022/01/17 17:30:20;;;;;;;7.22;3.97;;;;;;;;;;8400921;28;20040;-74
2022/01/17 17:34:27;;;;;;;51.00;13.15;;;;;;;;;;8411046;28;20056;-75
2022/01/17 17:38:32;;;;;;;39.35;8.43;;;;;;;;;;8391809;28;20052;-74
2022/01/17 17:42:39;;;;;;;15.40;4.60;;;;;;;;;;8412176;28;20085;-74
2022/01/17 17:46:43;;;;;;;15.07;5.45;;;;;;;;;;8402791;28;20051;-74
2022/01/17 17:50:46;;;;;;;42.97;13.30;;;;;;;;;;8417970;28;20484;-74
2022/01/17 17:54:51;;;;;;;19.83;8.85;;;;;;;;;;8425820;28;20093;-75
2022/01/17 17:58:54;;;;;;;16.08;6.85;;;;;;;;;;8427449;28;20040;-73
2022/01/17 18:02:57;;;;;;;12.32;4.55;;;;;;;;;;8428293;28;20055;-74
2022/01/17 18:07:00;;;;;;;11.15;4.13;;;;;;;;;;8406064;28;20476;-75
2022/01/17 18:11:04;;;;;;;17.75;7.93;;;;;;;;;;8410855;28;20074;-73
2022/01/17 18:15:09;;;;;;;11.05;3.90;;;;;;;;;;8410852;28;20052;-76
2022/01/17 18:19:12;;;;;;;12.23;5.22;;;;;;;;;;8407322;28;20093;-76
2022/01/17 18:23:15;;;;;;;18.58;7.22;;;;;;;;;;8403823;28;20044;-76
2022/01/17 18:27:19;;;;;;;22.27;7.78;;;;;;;;;;8416592;28;20473;-73
2022/01/17 18:31:26;;;;;;;11.48;5.15;;;;;;;;;;8414128;28;20046;-76
2022/01/17 18:35:29;;;;;;;13.38;3.95;;;;;;;;;;8423373;28;20086;-75
2022/01/17 18:39:32;;;;;;;13.88;4.80;;;;;;;;;;8425052;28;20446;-76
2022/01/17 18:43:37;;;;;;;13.35;5.90;;;;;;;;;;8431134;28;20453;-75
2022/01/17 18:47:40;;;;;;;13.40;5.10;;;;;;;;;;8431405;28;20044;-74
2022/01/17 18:51:45;;;;;;;6.15;3.30;;;;;;;;;;8430577;28;20045;-74
2022/01/17 18:55:49;;;;;;;9.18;3.42;;;;;;;;;;8382436;28;20476;-74
2022/01/17 18:59:54;;;;;;;16.35;6.07;;;;;;;;;;8397025;28;20051;-75
2022/01/17 19:04:02;;;;;;;15.65;3.72;;;;;;;;;;8397499;28;20048;-74
2022/01/17 19:08:12;;;;;;;12.10;3.85;;;;;;;;;;8398193;28;20048;-74
2022/01/17 19:12:24;;;;;;;11.05;4.03;;;;;;;;;;8397742;28;20044;-75
2022/01/17 19:16:30;;;;;;;13.38;4.43;;;;;;;;;;8398044;28;20071;-74
2022/01/17 19:20:54;;;;;;;10.65;4.03;;;;;;;;;;8397899;28;20053;-75
2022/01/17 19:25:00;;;;;;;15.30;4.15;;;;;;;;;;8397321;28;20488;-75
2022/01/17 19:29:04;;;;;;;17.98;5.63;;;;;;;;;;8397457;28;20061;-74
2022/01/17 19:33:10;;;;;;;17.92;6.55;;;;;;;;;;8398317;28;20484;-75
2022/01/17 19:37:13;;;;;;;15.70;5.18;;;;;;;;;;8397693;28;20098;-73
2022/01/17 19:41:17;;;;;;;15.45;4.43;;;;;;;;;;8397493;28;20055;-74
2022/01/17 19:45:20;;;;;;;18.92;4.57;;;;;;;;;;8397085;28;20045;-76
2022/01/17 19:49:26;;;;;;;11.48;4.53;;;;;;;;;;8397729;28;20476;-77
2022/01/17 19:53:30;;;;;;;17.58;4.55;;;;;;;;;;8396935;28;20049;-74
2022/01/17 19:57:34;;;;;;;13.27;4.80;;;;;;;;;;8397509;28;20068;-74
2022/01/17 20:01:37;;;;;;;12.23;3.85;;;;;;;;;;8397441;28;20546;-75
2022/01/17 20:05:42;;;;;;;16.75;5.07;;;;;;;;;;8397155;28;20052;-74
2022/01/17 20:09:46;;;;;;;13.73;4.78;;;;;;;;;;8397243;28;20045;-73
2022/01/17 20:13:50;;;;;;;16.67;5.22;;;;;;;;;;8396708;28;20044;-75
2022/01/17 20:17:54;;;;;;;10.63;3.60;;;;;;;;;;8396731;28;20043;-73
2022/01/17 20:22:00;;;;;;;19.83;4.65;;;;;;;;;;8396754;28;20048;-73
2022/01/17 20:26:03;;;;;;;15.20;5.28;;;;;;;;;;8396284;28;20048;-74
2022/01/17 20:30:08;;;;;;;15.27;5.00;;;;;;;;;;8396608;28;20056;-76
2022/01/17 20:34:11;;;;;;;11.60;3.90;;;;;;;;;;8396409;28;20048;-76
2022/01/17 20:38:17;;;;;;;12.95;4.50;;;;;;;;;;8398424;28;20067;-74
2022/01/17 20:42:21;;;;;;;11.77;3.80;;;;;;;;;;8424509;28;20112;-75
2022/01/17 20:46:25;;;;;;;13.85;4.40;;;;;;;;;;8430825;28;20093;-74
2022/01/17 20:50:28;;;;;;;12.13;3.92;;;;;;;;;;8434355;28;20487;-76
2022/01/17 20:54:32;;;;;;;8.15;3.22;;;;;;;;;;8433615;28;20051;-73
2022/01/17 20:58:36;;;;;;;11.93;3.90;;;;;;;;;;8434254;28;20054;-77
2022/01/17 21:02:39;;;;;;;15.73;4.40;;;;;;;;;;8434385;28;20043;-75
2022/01/17 21:06:43;;;;;;;9.55;3.78;;;;;;;;;;8433094;28;20050;-75
2022/01/17 21:10:49;;;;;;;12.93;3.75;;;;;;;;;;8435614;28;20044;-73
2022/01/17 21:14:52;;;;;;;12.27;4.00;;;;;;;;;;8436137;28;20055;-75
2022/01/17 21:18:55;;;;;;;9.00;3.53;;;;;;;;;;8435493;28;20055;-74
2022/01/17 21:22:59;;;;;;;12.55;5.25;;;;;;;;;;8435820;28;20071;-74
2022/01/17 21:27:06;;;;;;;5.13;2.75;;;;;;;;;;8434919;28;20097;-74
2022/01/17 21:31:10;;;;;;;15.30;3.70;;;;;;;;;;8435450;28;20048;-75
2022/01/17 21:35:14;;;;;;;8.90;3.03;;;;;;;;;;8435436;28;20051;-73
2022/01/17 21:39:17;;;;;;;9.35;3.20;;;;;;;;;;8434824;28;20048;-72
2022/01/17 21:43:22;;;;;;;10.35;3.38;;;;;;;;;;8434553;28;20048;-72
2022/01/17 21:47:24;;;;;;;8.10;3.35;;;;;;;;;;8434966;28;20472;-73
2022/01/17 21:51:27;;;;;;;9.02;3.33;;;;;;;;;;8434422;28;20068;-75
2022/01/17 21:55:30;;;;;;;9.90;3.42;;;;;;;;;;8434817;28;20485;-74
2022/01/17 21:59:34;;;;;;;13.18;3.50;;;;;;;;;;8434671;28;20483;-73
2022/01/17 22:03:37;;;;;;;10.70;3.33;;;;;;;;;;8434069;28;20123;-75
2022/01/17 22:07:40;;;;;;;9.32;2.95;;;;;;;;;;8434364;28;20113;-74
2022/01/17 22:11:43;;;;;;;10.43;3.10;;;;;;;;;;8434265;28;20044;-74
2022/01/17 22:15:47;;;;;;;8.57;2.95;;;;;;;;;;8433719;28;20075;-75
2022/01/17 22:19:50;;;;;;;8.75;3.30;;;;;;;;;;8434059;28;20487;-75
2022/01/17 22:23:53;;;;;;;9.30;2.97;;;;;;;;;;8433447;28;20043;-75
2022/01/17 22:27:56;;;;;;;10.63;3.25;;;;;;;;;;8433009;28;20063;-75
2022/01/17 22:32:00;;;;;;;12.77;3.00;;;;;;;;;;8433659;28;20403;-74
2022/01/17 22:36:03;;;;;;;13.00;3.00;;;;;;;;;;8433435;28;20058;-74
2022/01/17 22:40:08;;;;;;;9.60;2.92;;;;;;;;;;8432633;28;20457;-73
2022/01/17 22:44:11;;;;;;;7.03;3.20;;;;;;;;;;8432728;28;20052;-74
2022/01/17 22:48:16;;;;;;;6.72;2.80;;;;;;;;;;8432534;28;20071;-76
2022/01/17 22:52:18;;;;;;;6.82;2.83;;;;;;;;;;8432439;28;20075;-74
2022/01/17 22:56:21;;;;;;;7.53;3.33;;;;;;;;;;8432842;28;20498;-75
2022/01/17 23:00:27;;;;;;;8.80;3.13;;;;;;;;;;8430477;28;20059;-74
2022/01/17 23:04:32;;;;;;;4.88;2.80;;;;;;;;;;8432050;28;20488;-75
2022/01/17 23:08:34;;;;;;;6.95;2.70;;;;;;;;;;8432255;28;20055;-75
2022/01/17 23:12:37;;;;;;;4.30;2.47;;;;;;;;;;8432305;28;20040;-73
2022/01/17 23:16:43;;;;;;;8.23;3.05;;;;;;;;;;8431676;28;20135;-74
2022/01/17 23:20:47;;;;;;;11.77;3.05;;;;;;;;;;8431644;28;20471;-75
2022/01/17 23:24:50;;;;;;;3.58;2.40;;;;;;;;;;8431941;28;20399;-76
2022/01/17 23:28:53;;;;;;;7.53;3.13;;;;;;;;;;8431201;28;20060;-76
2022/01/17 23:37:20;;;;;;;6.70;2.88;;;;;;;;;;8431693;28;20040;-75
2022/01/17 23:41:23;;;;;;;9.52;3.08;;;;;;;;;;8431071;28;20052;-74
2022/01/17 23:45:25;;;;;;;8.40;2.70;;;;;;;;;;8430834;28;20055;-75
2022/01/17 23:49:28;;;;;;;11.73;3.30;;;;;;;;;;8431197;28;20427;-74
2022/01/17 23:53:32;;;;;;;7.13;3.45;;;;;;;;;;8430799;28;20488;-76
2022/01/17 23:57:44;;;;;;;11.73;4.10;;;;;;;;;;8430580;28;20048;-74
